Time;durP1;ratioP1;P1;durP2;ratioP2;P2;SDS_P1;SDS_P2;PMS_P1;PMS_P2;Temp;Humidity;BMP_temperature;BMP_pressure;BME280_temperature;BME280_humidity;BME280_pressure;Samples;Min_cycle;Max_cycle;Signal;HPM_P1;HPM_P2
2023/05/15 00:01:20;;;;;;;71.88;55.22;;;18.30;77.20;;;;;;4977661;28;90470;-51
2023/05/15 00:03:46;;;;;;;70.47;54.45;;;18.20;77.10;;;;;;4980737;28;88756;-53
2023/05/15 00:06:12;;;;;;;69.80;54.63;;;18.20;77.10;;;;;;4977286;28;90861;-53
2023/05/15 00:08:38;;;;;;;70.70;55.22;;;18.20;77.20;;;;;;4970405;28;92779;-52
2023/05/15 00:11:04;;;;;;;72.13;55.17;;;18.20;77.30;;;;;;4976028;28;95143;-51
2023/05/15 00:13:30;;;;;;;71.40;54.40;;;18.20;77.30;;;;;;4974696;28;89291;-51
2023/05/15 00:15:55;;;;;;;70.50;54.25;;;18.20;77.30;;;;;;4979912;28;89588;-53
2023/05/15 00:18:21;;;;;;;71.18;54.85;;;18.20;77.30;;;;;;4981040;28;89594;-52
2023/05/15 00:20:47;;;;;;;71.15;54.97;;;18.20;77.30;;;;;;4979373;28;89555;-50
2023/05/15 00:23:12;;;;;;;70.50;55.15;;;18.20;77.30;;;;;;4975622;28;90154;-54
2023/05/15 00:25:38;;;;;;;71.15;54.97;;;18.10;77.30;;;;;;4970963;28;90738;-54
2023/05/15 00:28:04;;;;;;;69.75;54.45;;;18.10;77.20;;;;;;4977780;28;90241;-49
2023/05/15 00:30:29;;;;;;;71.30;55.95;;;18.10;77.30;;;;;;4985897;22;90878;-79
2023/05/15 00:32:55;;;;;;;71.40;54.05;;;18.10;77.30;;;;;;4974266;28;90211;-78
2023/05/15 00:35:21;;;;;;;71.15;53.90;;;18.10;77.40;;;;;;4974134;28;91106;-81
2023/05/15 00:37:47;;;;;;;71.25;54.50;;;18.10;78.20;;;;;;4980555;28;90681;-81
2023/05/15 00:40:20;;;;;;;70.40;54.30;;;18.10;77.50;;;;;;4981899;28;89348;-78
2023/05/15 00:42:46;;;;;;;71.10;54.42;;;18.10;77.50;;;;;;4979216;28;89671;-77
2023/05/15 00:45:12;;;;;;;70.20;54.08;;;18.10;77.40;;;;;;4976321;28;92144;-79
2023/05/15 00:47:39;;;;;;;70.95;54.97;;;18.10;77.40;;;;;;4991549;22;90586;-45
2023/05/15 00:50:07;;;;;;;70.22;54.83;;;18.00;77.40;;;;;;4981397;28;89481;-52
2023/05/15 00:52:33;;;;;;;71.78;54.92;;;18.00;77.50;;;;;;4980068;28;88762;-47
2023/05/15 00:54:59;;;;;;;71.30;54.70;;;18.00;77.40;;;;;;4971076;28;94409;-49
2023/05/15 00:57:26;;;;;;;70.32;55.03;;;18.00;77.50;;;;;;4981380;28;89882;-46
2023/05/15 00:59:53;;;;;;;71.47;55.33;;;18.00;77.50;;;;;;4983570;28;90485;-48
2023/05/15 01:02:19;;;;;;;71.93;55.90;;;18.00;77.50;;;;;;4980953;28;89686;-46
2023/05/15 01:04:45;;;;;;;70.93;55.15;;;18.00;77.60;;;;;;4979309;28;90148;-49
2023/05/15 01:07:11;;;;;;;70.95;55.13;;;18.00;77.60;;;;;;4976354;28;90078;-51
2023/05/15 01:09:38;;;;;;;73.10;55.28;;;18.00;77.50;;;;;;4978920;28;89973;-47
2023/05/15 01:12:06;;;;;;;72.25;55.50;;;18.00;77.50;;;;;;4983852;28;90212;-52
2023/05/15 01:14:31;;;;;;;71.00;55.10;;;18.00;77.50;;;;;;4978737;28;90949;-48
2023/05/15 01:16:57;;;;;;;70.93;55.03;;;17.90;77.60;;;;;;4979751;28;89296;-45
2023/05/15 01:19:23;;;;;;;72.40;55.40;;;18.00;77.70;;;;;;4975049;28;91608;-49
2023/05/15 01:22:17;;;;;;;71.10;55.22;;;17.90;77.50;;;;;;4977053;28;89565;-46
2023/05/15 01:25:00;;;;;;;70.47;55.45;;;17.90;77.50;;;;;;4975987;28;91235;-49
2023/05/15 01:27:34;;;;;;;70.78;55.22;;;17.90;77.60;;;;;;4978780;28;90021;-50
2023/05/15 01:30:22;;;;;;;72.85;56.00;;;17.90;77.60;;;;;;4978849;28;90260;-45
2023/05/15 01:33:10;;;;;;;72.78;56.50;;;17.90;77.60;;;;;;4962866;28;90404;-45
2023/05/15 01:35:53;;;;;;;70.60;55.47;;;17.90;77.60;;;;;;4958326;28;90368;-48
2023/05/15 01:38:34;;;;;;;72.45;55.85;;;17.90;77.60;;;;;;4956103;28;93990;-45
2023/05/15 01:41:13;;;;;;;72.30;56.03;;;17.90;77.60;;;;;;4954422;28;89758;-54
2023/05/15 01:43:43;;;;;;;71.95;56.22;;;17.90;77.60;;;;;;4961685;28;89704;-50
2023/05/15 01:46:13;;;;;;;72.18;56.20;;;17.90;77.60;;;;;;4962461;28;90217;-47
2023/05/15 01:48:42;;;;;;;74.25;56.47;;;17.90;77.50;;;;;;4959250;28;90036;-46
2023/05/15 01:51:10;;;;;;;74.05;57.17;;;17.90;77.50;;;;;;4960718;28;92091;-46
2023/05/15 01:53:37;;;;;;;72.80;56.67;;;17.80;77.50;;;;;;4962563;28;90086;-48
2023/05/15 01:56:05;;;;;;;72.20;56.70;;;17.90;77.50;;;;;;4960828;28;91378;-48
2023/05/15 01:58:32;;;;;;;74.88;56.90;;;17.80;77.50;;;;;;4956673;28;89794;-49
2023/05/15 02:00:59;;;;;;;72.88;56.40;;;17.80;77.60;;;;;;4954405;28;89897;-49
2023/05/15 02:03:25;;;;;;;73.50;56.83;;;17.80;77.60;;;;;;4963397;28;89620;-50
2023/05/15 02:05:52;;;;;;;73.95;57.10;;;17.80;77.60;;;;;;4961590;28;90961;-47
2023/05/15 02:08:19;;;;;;;73.72;56.97;;;17.80;77.50;;;;;;4960988;28;89431;-45
2023/05/15 02:10:46;;;;;;;75.25;57.42;;;17.80;77.50;;;;;;4953633;28;90469;-48
2023/05/15 02:13:13;;;;;;;74.50;57.72;;;17.80;77.50;;;;;;4959473;28;90021;-47
2023/05/15 02:15:39;;;;;;;74.38;58.22;;;17.80;77.50;;;;;;4953681;28;91898;-48
2023/05/15 02:18:05;;;;;;;76.75;59.13;;;17.80;77.40;;;;;;4963670;28;90084;-45
2023/05/15 02:20:31;;;;;;;75.57;57.83;;;17.80;77.20;;;;;;4957539;28;90317;-48
2023/05/15 02:22:56;;;;;;;76.43;57.15;;;17.80;77.50;;;;;;4958131;28;89805;-46
2023/05/15 02:25:47;;;;;;;74.97;57.40;;;17.80;77.50;;;;;;4961648;28;89446;-46
2023/05/15 02:28:23;;;;;;;76.25;58.05;;;17.80;77.40;;;;;;4960228;28;90287;-44
2023/05/15 02:30:55;;;;;;;75.75;58.22;;;17.80;77.60;;;;;;4958184;28;89801;-47
2023/05/15 02:33:35;;;;;;;74.75;58.13;;;17.80;77.50;;;;;;4961845;28;88597;-47
2023/05/15 02:36:08;;;;;;;77.20;58.67;;;17.80;77.50;;;;;;4961022;28;91548;-47
2023/05/15 02:38:55;;;;;;;75.00;58.55;;;17.80;77.50;;;;;;4957367;28;90645;-44
2023/05/15 02:41:22;;;;;;;79.45;58.65;;;17.80;77.40;;;;;;4954293;28;91008;-44
2023/05/15 02:43:51;;;;;;;75.30;58.15;;;17.70;77.50;;;;;;4955018;28;93486;-47
2023/05/15 02:46:18;;;;;;;75.75;57.85;;;17.70;77.40;;;;;;4957976;28;89832;-45
2023/05/15 02:48:44;;;;;;;76.95;59.03;;;17.70;77.50;;;;;;4954733;28;90399;-45
2023/05/15 02:51:12;;;;;;;76.47;58.65;;;17.70;77.40;;;;;;4955253;28;89739;-54
2023/05/15 02:53:41;;;;;;;75.47;58.38;;;17.70;77.40;;;;;;4961071;28;89662;-45
2023/05/15 02:56:08;;;;;;;75.35;58.58;;;17.70;77.50;;;;;;4953117;28;90294;-46
2023/05/15 02:58:34;;;;;;;78.25;58.80;;;17.70;77.50;;;;;;4957992;28;93621;-49
2023/05/15 03:01:00;;;;;;;76.20;58.47;;;17.70;77.50;;;;;;4960460;28;90409;-51
2023/05/15 03:03:25;;;;;;;76.65;58.53;;;17.70;77.50;;;;;;4979796;22;90999;-77
2023/05/15 03:05:51;;;;;;;76.75;58.90;;;17.70;77.40;;;;;;4966239;28;94617;-77
2023/05/15 03:08:18;;;;;;;75.88;58.28;;;17.70;77.40;;;;;;4973886;28;89912;-79
2023/05/15 03:10:43;;;;;;;77.97;59.58;;;17.70;77.60;;;;;;4987221;22;89586;-53
2023/05/15 03:13:09;;;;;;;77.55;59.70;;;17.70;77.50;;;;;;4972839;28;90042;-54
2023/05/15 03:15:35;;;;;;;78.05;61.28;;;17.70;77.40;;;;;;4992694;22;90094;-84
2023/05/15 03:18:01;;;;;;;76.00;58.88;;;17.70;77.50;;;;;;4984777;28;92763;-84
2023/05/15 03:20:27;;;;;;;76.78;58.72;;;17.70;77.50;;;;;;4981191;28;90252;-85
2023/05/15 03:22:52;;;;;;;77.57;59.40;;;17.70;77.40;;;;;;4985159;28;88544;-84
2023/05/15 03:25:18;;;;;;;79.43;59.45;;;17.70;77.40;;;;;;4980926;28;91004;-87
2023/05/15 03:27:44;;;;;;;78.07;59.53;;;17.70;77.50;;;;;;4986616;28;89632;-84
2023/05/15 03:30:10;;;;;;;77.88;58.58;;;17.70;77.50;;;;;;4983157;28;91059;-86
2023/05/15 03:32:35;;;;;;;77.60;59.70;;;17.70;77.50;;;;;;4984249;28;89205;-85
2023/05/15 03:35:01;;;;;;;77.10;59.47;;;17.70;77.50;;;;;;4983923;28;92229;-84
2023/05/15 03:37:27;;;;;;;78.15;60.05;;;17.60;77.50;;;;;;4990696;28;91753;-84
2023/05/15 03:39:53;;;;;;;76.88;59.35;;;17.60;77.50;;;;;;4988369;28;89615;-85
2023/05/15 03:42:22;;;;;;;79.68;60.17;;;17.70;77.50;;;;;;4986032;28;89341;-84
2023/05/15 03:44:48;;;;;;;76.95;59.55;;;17.60;77.40;;;;;;4983340;28;89869;-84
2023/05/15 03:47:14;;;;;;;76.78;59.33;;;17.60;77.40;;;;;;4983478;28;92285;-84
2023/05/15 03:49:40;;;;;;;77.18;59.30;;;17.60;77.50;;;;;;4988237;28;89414;-84
2023/05/15 03:52:06;;;;;;;78.00;59.60;;;17.60;77.60;;;;;;4986296;28;89467;-84
2023/05/15 03:54:32;;;;;;;77.40;60.03;;;17.60;77.50;;;;;;4988567;28;93990;-83
2023/05/15 03:56:58;;;;;;;77.22;59.10;;;17.60;77.60;;;;;;4988281;28;94198;-84
2023/05/15 03:59:24;;;;;;;77.25;59.47;;;17.60;77.50;;;;;;4987806;28;89500;-85
2023/05/15 04:01:49;;;;;;;75.70;59.45;;;17.60;77.50;;;;;;4984413;28;89076;-85
2023/05/15 04:04:15;;;;;;;78.15;60.42;;;17.60;77.60;;;;;;4986475;28;92485;-84
2023/05/15 04:06:41;;;;;;;77.32;59.33;;;17.60;77.20;;;;;;4983865;28;91307;-85
2023/05/15 04:09:07;;;;;;;79.07;60.05;;;17.60;77.50;;;;;;4967246;28;89371;-84
2023/05/15 04:11:33;;;;;;;77.35;59.30;;;17.60;77.30;;;;;;4985998;28;88512;-84
2023/05/15 04:13:59;;;;;;;77.68;59.65;;;17.60;77.50;;;;;;4967604;28;93076;-84
2023/05/15 04:16:25;;;;;;;76.90;59.83;;;17.60;78.10;;;;;;4963706;28;92602;-90
2023/05/15 04:18:50;;;;;;;75.15;58.88;;;17.60;77.40;;;;;;4962225;28;89950;-87
2023/05/15 04:21:16;;;;;;;77.18;59.97;;;17.60;77.40;;;;;;4981829;28;89228;-85
2023/05/15 04:23:42;;;;;;;78.85;59.40;;;17.50;77.20;;;;;;4976071;28;93114;-85
2023/05/15 04:26:08;;;;;;;77.20;59.28;;;17.60;77.40;;;;;;4967096;28;89541;-84
2023/05/15 04:28:33;;;;;;;77.65;59.95;;;17.50;77.20;;;;;;4966783;28;88806;-84
2023/05/15 04:31:00;;;;;;;76.75;59.45;;;17.50;77.30;;;;;;4973480;28;89291;-85
2023/05/15 04:33:25;;;;;;;75.80;59.22;;;17.50;77.30;;;;;;4969545;28;92430;-85
2023/05/15 04:35:52;;;;;;;76.47;58.85;;;17.50;77.40;;;;;;4971055;28;92637;-84
2023/05/15 04:38:17;;;;;;;78.55;59.25;;;17.50;77.40;;;;;;4969147;28;89460;-84
2023/05/15 04:40:43;;;;;;;78.32;59.60;;;17.50;77.40;;;;;;4971584;28;89534;-85
2023/05/15 04:43:09;;;;;;;76.97;59.42;;;17.50;77.50;;;;;;4962383;28;93866;-86
2023/05/15 04:45:35;;;;;;;76.80;59.20;;;17.50;77.40;;;;;;4962659;28;93604;-86
2023/05/15 04:48:00;;;;;;;78.72;59.72;;;17.50;77.50;;;;;;4969916;28;89102;-86
2023/05/15 04:50:26;;;;;;;77.22;59.20;;;17.50;77.40;;;;;;4983000;28;89100;-86
2023/05/15 04:52:51;;;;;;;77.32;59.50;;;17.50;77.40;;;;;;4967057;28;93033;-86
2023/05/15 04:55:17;;;;;;;79.47;59.80;;;17.50;77.40;;;;;;4969224;28;92684;-86
2023/05/15 04:57:45;;;;;;;79.85;60.13;;;17.50;77.30;;;;;;4968140;28;89073;-88
2023/05/15 05:00:11;;;;;;;78.13;59.50;;;17.50;77.40;;;;;;4966696;28;88132;-87
2023/05/15 05:02:38;;;;;;;78.85;59.40;;;17.50;77.50;;;;;;4967511;28;94069;-85
2023/05/15 05:05:05;;;;;;;77.95;59.53;;;17.50;77.70;;;;;;4966373;28;92209;-85
2023/05/15 05:07:31;;;;;;;76.50;58.65;;;17.50;77.70;;;;;;4965474;28;90461;-85
2023/05/15 05:09:56;;;;;;;80.07;59.30;;;17.50;77.80;;;;;;4960697;28;89448;-87
2023/05/15 05:12:22;;;;;;;80.93;60.15;;;17.50;77.80;;;;;;4967248;28;90741;-86
2023/05/15 05:14:48;;;;;;;79.53;59.28;;;17.50;77.80;;;;;;4964178;28;90799;-86
2023/05/15 05:17:13;;;;;;;79.15;59.90;;;17.50;77.70;;;;;;4960564;28;89160;-83
2023/05/15 05:19:39;;;;;;;81.20;60.47;;;17.50;78.40;;;;;;4966977;28;89441;-83
2023/05/15 05:22:06;;;;;;;89.38;61.38;;;17.50;78.00;;;;;;4981292;28;93339;-84
2023/05/15 05:24:34;;;;;;;86.97;61.92;;;17.50;78.70;;;;;;4962572;28;92270;-83
2023/05/15 05:27:05;;;;;;;85.88;62.65;;;17.50;79.20;;;;;;4967912;28;89023;-85
2023/05/15 05:29:31;;;;;;;86.97;62.65;;;17.50;79.50;;;;;;4966960;28;89316;-86
2023/05/15 05:31:57;;;;;;;90.00;63.10;;;17.50;79.50;;;;;;4970799;28;90901;-86
2023/05/15 05:34:23;;;;;;;91.00;62.35;;;17.50;79.50;;;;;;4969205;28;93788;-84
2023/05/15 05:36:49;;;;;;;84.95;61.60;;;17.50;79.50;;;;;;4970700;28;89358;-84
2023/05/15 05:39:15;;;;;;;85.25;60.83;;;17.50;79.50;;;;;;4969008;28;88932;-86
2023/05/15 05:41:41;;;;;;;83.57;60.42;;;17.40;79.40;;;;;;4968654;28;89990;-83
2023/05/15 05:44:07;;;;;;;82.43;60.30;;;17.50;79.30;;;;;;4966526;28;92245;-83
2023/05/15 05:46:33;;;;;;;81.85;60.85;;;17.40;79.10;;;;;;4967639;28;89202;-84
2023/05/15 05:48:59;;;;;;;85.57;61.63;;;17.40;79.10;;;;;;4969922;28;88744;-83
2023/05/15 05:51:24;;;;;;;83.53;60.45;;;17.40;79.20;;;;;;4966589;28;93806;-84
2023/05/15 05:53:50;;;;;;;86.97;59.92;;;17.40;79.00;;;;;;4966282;28;92417;-84
2023/05/15 05:56:16;;;;;;;83.63;60.35;;;17.40;79.00;;;;;;4970259;28;90050;-85
2023/05/15 05:58:42;;;;;;;81.28;60.55;;;17.40;79.00;;;;;;4965538;28;89031;-83
2023/05/15 06:01:07;;;;;;;82.95;59.95;;;17.40;78.90;;;;;;4969719;28;90024;-84
2023/05/15 06:03:34;;;;;;;80.05;59.78;;;17.40;78.70;;;;;;4966642;28;92210;-84
2023/05/15 06:05:59;;;;;;;83.75;59.42;;;17.40;78.70;;;;;;4967042;28;89537;-84
2023/05/15 06:08:25;;;;;;;84.82;60.38;;;17.40;78.90;;;;;;4969335;28;89221;-83
2023/05/15 06:10:51;;;;;;;80.03;60.05;;;17.40;78.70;;;;;;4974742;28;92208;-84
2023/05/15 06:13:17;;;;;;;79.55;59.28;;;17.40;78.70;;;;;;4971701;28;91144;-83
2023/05/15 06:15:43;;;;;;;80.78;59.97;;;17.40;78.70;;;;;;4970374;28;89138;-86
2023/05/15 06:18:09;;;;;;;78.45;59.42;;;17.40;78.60;;;;;;4977053;28;89198;-84
2023/05/15 06:20:35;;;;;;;82.65;59.58;;;17.40;78.60;;;;;;4966505;28;93673;-85
2023/05/15 06:23:00;;;;;;;76.05;59.25;;;17.40;78.60;;;;;;4970252;28;91873;-84
2023/05/15 06:25:26;;;;;;;79.25;58.63;;;17.40;78.70;;;;;;4967355;28;88765;-86
2023/05/15 06:27:52;;;;;;;77.97;58.78;;;17.40;78.60;;;;;;4966624;28;89207;-84
2023/05/15 06:30:17;;;;;;;78.20;59.95;;;17.40;78.50;;;;;;4977765;28;89337;-86
2023/05/15 06:32:43;;;;;;;77.38;58.78;;;17.40;78.50;;;;;;4971923;28;92628;-84
2023/05/15 06:35:09;;;;;;;77.93;58.83;;;17.40;78.50;;;;;;4970425;28;89621;-85
2023/05/15 06:37:36;;;;;;;75.88;58.55;;;17.40;78.40;;;;;;4970572;28;88123;-84
2023/05/15 06:40:02;;;;;;;78.38;58.95;;;17.40;78.40;;;;;;4973466;28;89808;-84
2023/05/15 06:42:27;;;;;;;78.57;58.95;;;17.40;78.30;;;;;;4965838;28;91115;-86
2023/05/15 06:44:53;;;;;;;82.15;59.30;;;17.40;78.30;;;;;;4962153;28;90016;-86
2023/05/15 06:47:19;;;;;;;76.82;59.47;;;17.40;78.40;;;;;;4966180;28;89293;-82
2023/05/15 06:49:44;;;;;;;80.10;59.03;;;17.40;78.30;;;;;;4961001;28;93548;-84
2023/05/15 06:52:10;;;;;;;78.15;58.92;;;17.40;78.30;;;;;;4959508;28;93228;-83
2023/05/15 06:54:36;;;;;;;81.90;59.33;;;17.40;78.20;;;;;;4966793;28;89826;-83
2023/05/15 06:57:02;;;;;;;77.80;58.65;;;17.40;78.20;;;;;;4969588;28;89177;-83
2023/05/15 06:59:27;;;;;;;78.15;58.67;;;17.40;78.20;;;;;;4962994;28;92840;-85
2023/05/15 07:01:53;;;;;;;78.20;59.03;;;17.40;78.20;;;;;;4967874;28;90100;-84
2023/05/15 07:04:19;;;;;;;78.10;58.72;;;17.40;78.20;;;;;;4968156;28;89306;-83
2023/05/15 07:06:44;;;;;;;77.43;58.38;;;17.40;78.20;;;;;;4973070;28;89717;-84
2023/05/15 07:09:10;;;;;;;74.90;57.80;;;17.40;78.20;;;;;;4971540;28;93170;-83
2023/05/15 07:11:37;;;;;;;79.82;59.25;;;17.40;78.20;;;;;;4965793;28;93467;-84
2023/05/15 07:14:04;;;;;;;78.93;59.15;;;17.40;78.10;;;;;;4970094;28;89101;-84
2023/05/15 07:16:30;;;;;;;77.10;58.53;;;17.40;78.10;;;;;;4966706;28;89573;-84
2023/05/15 07:18:55;;;;;;;74.93;57.90;;;17.40;78.20;;;;;;4969876;28;92789;-84
2023/05/15 07:21:21;;;;;;;76.90;58.70;;;17.40;78.00;;;;;;4968984;28;92781;-84
2023/05/15 07:23:46;;;;;;;79.57;58.47;;;17.40;78.10;;;;;;4968888;28;89236;-86
2023/05/15 07:26:13;;;;;;;78.45;58.75;;;17.40;77.90;;;;;;4969730;28;88370;-85
2023/05/15 07:28:39;;;;;;;77.05;59.03;;;17.40;78.00;;;;;;4964873;28;92287;-84
2023/05/15 07:31:06;;;;;;;76.60;58.00;;;17.40;77.90;;;;;;4983211;28;90360;-84
2023/05/15 07:33:32;;;;;;;75.38;57.40;;;17.40;78.00;;;;;;4970259;28;89630;-85
2023/05/15 07:35:58;;;;;;;76.70;57.90;;;17.40;78.00;;;;;;4967191;28;89548;-84
2023/05/15 07:38:24;;;;;;;77.40;58.45;;;17.40;77.90;;;;;;4965887;28;89265;-84
2023/05/15 07:40:49;;;;;;;77.10;58.78;;;17.40;77.80;;;;;;4963247;28;91306;-84
2023/05/15 07:43:15;;;;;;;76.03;58.25;;;17.40;77.80;;;;;;4961971;28;89231;-84
2023/05/15 07:45:40;;;;;;;77.40;57.90;;;17.50;77.80;;;;;;4966997;28;89411;-84
2023/05/15 07:48:17;;;;;;;76.43;57.95;;;17.40;77.70;;;;;;4968593;28;89411;-84
2023/05/15 07:50:49;;;;;;;78.70;58.85;;;17.50;77.60;;;;;;4980515;28;92455;-84
2023/05/15 07:53:15;;;;;;;77.75;58.97;;;17.50;77.60;;;;;;4959617;28;90421;-84
2023/05/15 07:55:42;;;;;;;76.63;58.05;;;17.50;77.50;;;;;;4964799;28;88708;-83
2023/05/15 07:58:08;;;;;;;75.10;57.72;;;17.50;77.60;;;;;;4967492;28;90735;-83
2023/05/15 08:00:35;;;;;;;74.93;58.30;;;17.50;77.60;;;;;;4962487;28;91745;-85
2023/05/15 08:03:00;;;;;;;77.00;58.15;;;17.50;77.60;;;;;;4964474;28;89204;-83
2023/05/15 08:05:26;;;;;;;77.50;57.63;;;17.50;77.70;;;;;;4965303;28;88989;-83
2023/05/15 08:07:51;;;;;;;78.80;58.72;;;17.50;77.70;;;;;;4966568;28;92869;-83
2023/05/15 08:10:17;;;;;;;76.53;57.90;;;17.50;77.70;;;;;;4968320;28;93213;-83
2023/05/15 08:12:46;;;;;;;77.53;58.83;;;17.50;77.70;;;;;;4963776;28;90854;-84
2023/05/15 08:15:12;;;;;;;78.80;58.92;;;17.50;77.60;;;;;;4967530;28;88413;-83
2023/05/15 08:17:37;;;;;;;76.75;58.67;;;17.50;77.50;;;;;;4965989;28;92701;-83
2023/05/15 08:20:04;;;;;;;75.97;57.88;;;17.50;77.40;;;;;;4966725;28;92583;-85
2023/05/15 08:22:30;;;;;;;76.63;58.17;;;17.50;77.50;;;;;;4966878;28;89749;-86
2023/05/15 08:24:56;;;;;;;76.35;58.13;;;17.50;77.70;;;;;;4968867;28;89415;-84
2023/05/15 08:27:22;;;;;;;77.63;59.28;;;17.50;77.50;;;;;;4969402;28;92715;-84
2023/05/15 08:29:48;;;;;;;76.50;58.03;;;17.50;77.40;;;;;;4971915;28;92804;-84
2023/05/15 08:32:13;;;;;;;75.82;57.85;;;17.50;77.50;;;;;;4973376;28;89290;-83
2023/05/15 08:34:39;;;;;;;80.18;58.47;;;17.60;77.50;;;;;;4969516;28;89917;-84
2023/05/15 08:37:05;;;;;;;76.20;57.58;;;17.50;77.50;;;;;;4971413;28;92019;-84
2023/05/15 08:39:31;;;;;;;78.53;58.53;;;17.50;77.40;;;;;;4966995;28;92536;-84
2023/05/15 08:42:02;;;;;;;74.22;57.28;;;17.50;77.30;;;;;;4971887;28;89117;-83
2023/05/15 08:44:28;;;;;;;77.50;58.50;;;17.50;77.40;;;;;;4964783;28;90265;-84
2023/05/15 08:46:56;;;;;;;74.47;57.35;;;17.60;77.40;;;;;;4965842;28;92403;-83
2023/05/15 08:49:46;;;;;;;74.32;57.50;;;17.50;77.40;;;;;;4970524;28;93672;-83
2023/05/15 08:52:12;;;;;;;75.50;57.33;;;17.50;77.30;;;;;;4969613;28;89761;-83
2023/05/15 08:54:39;;;;;;;74.97;57.85;;;17.50;78.10;;;;;;4970173;28;89174;-83
2023/05/15 08:57:06;;;;;;;73.85;57.13;;;17.60;77.40;;;;;;4965777;28;92484;-84
2023/05/15 08:59:32;;;;;;;73.13;57.10;;;17.60;77.30;;;;;;4967844;28;92054;-84
2023/05/15 09:01:59;;;;;;;75.70;57.45;;;17.60;77.30;;;;;;4971399;28;89305;-84
2023/05/15 09:04:24;;;;;;;74.35;58.13;;;17.60;77.40;;;;;;4964908;28;88304;-83
2023/05/15 09:06:51;;;;;;;76.53;57.30;;;17.60;77.30;;;;;;4969741;28;92455;-84
2023/05/15 09:09:19;;;;;;;75.85;58.20;;;17.60;77.30;;;;;;4971142;28;92557;-83
2023/05/15 09:11:47;;;;;;;75.93;57.72;;;17.60;77.40;;;;;;4969051;28;90081;-84
2023/05/15 09:14:13;;;;;;;80.38;57.45;;;17.60;77.50;;;;;;4975253;28;89325;-84
2023/05/15 09:16:38;;;;;;;75.35;57.22;;;17.60;77.30;;;;;;4974112;28;92848;-83
2023/05/15 09:19:05;;;;;;;74.13;56.70;;;17.60;77.30;;;;;;4987271;28;92497;-84
2023/05/15 09:21:31;;;;;;;76.00;57.63;;;17.60;77.30;;;;;;4969319;28;89440;-84
2023/05/15 09:24:22;;;;;;;75.25;57.67;;;17.60;77.30;;;;;;4967946;28;89194;-84
2023/05/15 09:27:05;;;;;;;74.53;57.20;;;17.60;77.20;;;;;;4968933;28;91675;-84
2023/05/15 09:29:32;;;;;;;76.60;57.15;;;17.60;77.30;;;;;;4971714;28;92854;-83
2023/05/15 09:32:06;;;;;;;74.15;57.10;;;17.60;77.40;;;;;;4967130;28;89144;-83
2023/05/15 09:34:34;;;;;;;73.88;56.95;;;17.60;77.30;;;;;;4971275;28;89228;-85
2023/05/15 09:37:01;;;;;;;73.75;56.35;;;17.60;77.30;;;;;;4968222;28;90762;-86
2023/05/15 09:39:27;;;;;;;74.90;57.28;;;17.60;77.20;;;;;;4971957;28;93887;-84
2023/05/15 09:41:53;;;;;;;72.97;56.78;;;17.60;77.30;;;;;;4966242;28;88991;-85
2023/05/15 09:44:25;;;;;;;74.22;56.65;;;17.60;77.00;;;;;;4970926;28;89336;-83
2023/05/15 09:46:51;;;;;;;74.60;56.90;;;17.70;77.10;;;;;;4969605;28;93307;-83
2023/05/15 09:49:20;;;;;;;73.82;57.05;;;17.60;77.10;;;;;;4974606;28;92365;-83
2023/05/15 09:51:48;;;;;;;75.95;57.13;;;17.60;77.10;;;;;;4966709;28;89281;-83
2023/05/15 09:54:16;;;;;;;75.85;57.38;;;17.70;77.20;;;;;;4970004;28;88512;-83
2023/05/15 09:56:46;;;;;;;72.28;56.03;;;17.70;77.00;;;;;;4984199;28;92803;-84
2023/05/15 09:59:17;;;;;;;72.97;56.17;;;17.70;77.10;;;;;;4967951;28;92675;-84
2023/05/15 10:01:44;;;;;;;74.05;56.58;;;17.70;77.10;;;;;;4963458;28;90265;-84
2023/05/15 10:04:11;;;;;;;73.50;56.35;;;17.60;77.00;;;;;;4967990;28;89329;-84
2023/05/15 10:06:39;;;;;;;74.78;56.25;;;17.60;77.00;;;;;;4987053;28;92075;-83
2023/05/15 10:09:05;;;;;;;71.80;55.88;;;17.60;77.10;;;;;;4980456;28;92386;-83
2023/05/15 10:11:34;;;;;;;73.38;56.22;;;17.60;77.10;;;;;;4969822;28;88902;-83
2023/05/15 10:14:00;;;;;;;74.63;56.25;;;17.60;77.10;;;;;;4971086;28;89657;-85
2023/05/15 10:16:27;;;;;;;74.47;56.63;;;17.60;77.10;;;;;;4966891;28;93432;-85
2023/05/15 10:18:56;;;;;;;73.57;55.88;;;17.60;77.20;;;;;;4965357;28;92557;-84
2023/05/15 10:21:22;;;;;;;71.30;55.15;;;17.70;77.20;;;;;;4969851;28;88950;-84
2023/05/15 10:23:49;;;;;;;72.50;55.95;;;17.60;77.10;;;;;;4986538;28;89971;-83
2023/05/15 10:26:22;;;;;;;72.38;55.78;;;17.60;77.00;;;;;;4966474;28;93459;-83
2023/05/15 10:28:50;;;;;;;74.25;55.63;;;17.70;77.20;;;;;;4971203;28;92831;-84
2023/05/15 10:31:17;;;;;;;74.68;56.38;;;17.60;77.30;;;;;;4968274;28;89056;-84
2023/05/15 10:33:43;;;;;;;73.47;55.88;;;17.60;77.20;;;;;;4967439;28;89263;-84
2023/05/15 10:36:09;;;;;;;74.30;55.83;;;17.60;77.20;;;;;;4968560;28;93069;-83
2023/05/15 10:38:36;;;;;;;73.13;56.60;;;17.60;77.20;;;;;;4967673;28;92207;-83
2023/05/15 10:41:04;;;;;;;72.45;55.40;;;17.60;77.10;;;;;;4969483;28;88824;-86
2023/05/15 10:43:30;;;;;;;73.22;56.20;;;17.70;77.20;;;;;;4983693;28;89074;-83
2023/05/15 10:45:57;;;;;;;74.93;56.20;;;17.60;77.10;;;;;;4967783;28;91004;-83
2023/05/15 10:48:23;;;;;;;73.85;56.50;;;17.70;77.20;;;;;;4962918;28;91805;-83
2023/05/15 10:50:49;;;;;;;71.10;55.15;;;17.60;77.20;;;;;;4966804;28;89929;-83
2023/05/15 10:53:16;;;;;;;73.00;54.78;;;17.60;77.20;;;;;;4970020;28;90030;-83
2023/05/15 10:55:41;;;;;;;72.90;55.65;;;17.60;77.30;;;;;;4969502;28;89207;-83
2023/05/15 10:58:08;;;;;;;72.75;55.60;;;17.60;77.40;;;;;;4962016;28;92676;-84
2023/05/15 11:00:41;;;;;;;73.60;55.53;;;17.60;77.40;;;;;;4968564;28;89234;-83
2023/05/15 11:03:07;;;;;;;72.50;55.22;;;17.60;77.30;;;;;;4981749;28;89275;-83
2023/05/15 11:06:11;;;;;;;73.93;56.00;;;17.60;77.40;;;;;;4971304;28;90143;-83
2023/05/15 11:08:43;;;;;;;73.70;55.75;;;17.70;77.50;;;;;;4974455;28;93359;-83
2023/05/15 11:11:48;;;;;;;72.05;55.33;;;17.60;77.30;;;;;;4970703;28;89610;-83
2023/05/15 11:14:13;;;;;;;70.72;55.05;;;17.70;77.30;;;;;;4969401;28;89243;-82
2023/05/15 11:16:56;;;;;;;72.25;54.65;;;17.70;77.30;;;;;;4972771;28;91444;-84
2023/05/15 11:19:31;;;;;;;72.80;55.45;;;17.70;77.40;;;;;;4965922;28;93070;-83
2023/05/15 11:21:58;;;;;;;72.82;55.55;;;17.60;77.30;;;;;;4967923;28;88928;-82
2023/05/15 11:24:54;;;;;;;73.50;55.83;;;17.70;77.40;;;;;;4972949;28;89145;-85
2023/05/15 11:27:25;;;;;;;71.88;55.42;;;17.70;77.30;;;;;;4957841;28;90458;-84
2023/05/15 11:30:20;;;;;;;74.50;55.50;;;17.70;77.30;;;;;;4963676;28;92563;-83
2023/05/15 11:32:46;;;;;;;73.95;55.33;;;17.70;77.30;;;;;;4965927;28;89518;-82
2023/05/15 11:35:36;;;;;;;71.90;54.97;;;17.70;77.30;;;;;;4964930;28;88383;-82
2023/05/15 11:38:13;;;;;;;71.50;55.40;;;17.70;77.30;;;;;;4968414;28;89783;-83
2023/05/15 11:41:01;;;;;;;74.57;55.72;;;17.70;77.30;;;;;;4962431;28;91803;-87
2023/05/15 11:43:32;;;;;;;72.30;55.55;;;17.70;77.30;;;;;;4961665;28;91008;-83
2023/05/15 11:46:08;;;;;;;76.50;55.93;;;17.70;77.30;;;;;;4969386;28;89370;-83
2023/05/15 11:48:38;;;;;;;72.43;55.63;;;17.70;77.40;;;;;;4965491;28;89807;-82
2023/05/15 11:51:04;;;;;;;71.07;55.38;;;17.70;77.30;;;;;;4966124;28;90695;-83
2023/05/15 11:53:31;;;;;;;72.97;55.08;;;17.70;77.40;;;;;;4971198;28;88995;-83
2023/05/15 11:55:57;;;;;;;71.80;55.22;;;17.70;77.80;;;;;;4972562;28;89265;-83
2023/05/15 11:58:24;;;;;;;71.38;55.33;;;17.70;77.20;;;;;;4977155;28;93271;-83
2023/05/15 12:00:52;;;;;;;71.90;54.70;;;17.70;77.20;;;;;;4973222;28;89452;-83
2023/05/15 12:03:22;;;;;;;71.25;55.22;;;17.70;77.20;;;;;;4968546;28;89380;-82
2023/05/15 12:05:48;;;;;;;71.53;55.55;;;17.70;77.10;;;;;;4974147;28;89361;-83
2023/05/15 12:08:14;;;;;;;70.45;54.83;;;17.70;77.10;;;;;;4967961;28;93979;-85
2023/05/15 12:10:44;;;;;;;71.55;55.08;;;17.70;76.90;;;;;;4971345;28;93428;-82
2023/05/15 12:13:14;;;;;;;70.07;54.20;;;17.70;76.80;;;;;;4964768;28;89205;-83
2023/05/15 12:15:44;;;;;;;68.97;53.67;;;17.70;76.80;;;;;;4969715;28;88949;-83
2023/05/15 12:18:11;;;;;;;73.53;54.83;;;17.70;76.70;;;;;;4970786;28;92704;-83
2023/05/15 12:20:39;;;;;;;70.47;53.60;;;17.70;76.90;;;;;;4972473;28;92513;-83
2023/05/15 12:23:06;;;;;;;70.45;53.83;;;17.70;76.60;;;;;;4974706;28;88959;-82
2023/05/15 12:25:33;;;;;;;69.65;53.60;;;17.70;76.60;;;;;;4969597;28;88789;-82
2023/05/15 12:28:02;;;;;;;69.32;54.42;;;17.70;76.70;;;;;;4982677;28;91060;-82
2023/05/15 12:30:33;;;;;;;69.15;54.30;;;17.70;76.80;;;;;;4966382;28;92240;-82
2023/05/15 12:33:03;;;;;;;70.47;54.00;;;17.70;76.80;;;;;;4966998;28;89938;-82